sensor_id;sensor_type;location;lat;lon;timestamp;temperature;humidity
53926;DHT22;39836;52.754;6.866;2023-03-01T00:00:21;-0.70;73.20
53926;DHT22;39836;52.754;6.866;2023-03-01T00:02:47;-0.70;73.30
53926;DHT22;39836;52.754;6.866;2023-03-01T00:05:12;-0.70;73.40
53926;DHT22;39836;52.754;6.866;2023-03-01T00:07:38;-0.70;73.50
53926;DHT22;39836;52.754;6.866;2023-03-01T00:10:04;-0.70;73.60
53926;DHT22;39836;52.754;6.866;2023-03-01T00:12:31;-0.70;73.70
53926;DHT22;39836;52.754;6.866;2023-03-01T00:14:56;-0.70;73.80
53926;DHT22;39836;52.754;6.866;2023-03-01T00:17:22;-0.70;73.90
53926;DHT22;39836;52.754;6.866;2023-03-01T00:19:48;-0.70;73.90
53926;DHT22;39836;52.754;6.866;2023-03-01T00:22:13;-0.80;73.90
53926;DHT22;39836;52.754;6.866;2023-03-01T00:24:39;-0.80;73.80
53926;DHT22;39836;52.754;6.866;2023-03-01T00:27:05;-0.80;74.00
53926;DHT22;39836;52.754;6.866;2023-03-01T00:29:30;-0.80;73.90
53926;DHT22;39836;52.754;6.866;2023-03-01T00:31:56;-0.80;73.90
53926;DHT22;39836;52.754;6.866;2023-03-01T00:34:22;-0.80;73.90
53926;DHT22;39836;52.754;6.866;2023-03-01T00:36:47;-0.80;74.30
53926;DHT22;39836;52.754;6.866;2023-03-01T00:39:14;-0.80;74.80
53926;DHT22;39836;52.754;6.866;2023-03-01T00:41:41;-0.80;75.20
53926;DHT22;39836;52.754;6.866;2023-03-01T00:44:06;-0.80;75.20
53926;DHT22;39836;52.754;6.866;2023-03-01T00:46:32;-0.80;74.80
53926;DHT22;39836;52.754;6.866;2023-03-01T00:48:59;-0.70;74.50
53926;DHT22;39836;52.754;6.866;2023-03-01T00:51:27;-0.70;74.40
53926;DHT22;39836;52.754;6.866;2023-03-01T00:53:55;-0.70;75.00
53926;DHT22;39836;52.754;6.866;2023-03-01T00:56:22;-0.70;75.20
53926;DHT22;39836;52.754;6.866;2023-03-01T00:58:48;-0.80;75.00
53926;DHT22;39836;52.754;6.866;2023-03-01T01:01:32;-0.70;74.70
53926;DHT22;39836;52.754;6.866;2023-03-01T01:04:10;-0.70;75.00
53926;DHT22;39836;52.754;6.866;2023-03-01T01:06:39;-0.80;75.00
53926;DHT22;39836;52.754;6.866;2023-03-01T01:09:06;-0.80;75.00
53926;DHT22;39836;52.754;6.866;2023-03-01T01:11:33;-0.80;74.80
53926;DHT22;39836;52.754;6.866;2023-03-01T01:14:00;-0.80;74.60
53926;DHT22;39836;52.754;6.866;2023-03-01T01:16:27;-0.80;74.70
53926;DHT22;39836;52.754;6.866;2023-03-01T01:18:53;-0.80;74.70
53926;DHT22;39836;52.754;6.866;2023-03-01T01:21:21;-0.90;74.70
53926;DHT22;39836;52.754;6.866;2023-03-01T01:23:47;-0.90;74.90
53926;DHT22;39836;52.754;6.866;2023-03-01T01:26:17;-0.90;75.20
53926;DHT22;39836;52.754;6.866;2023-03-01T01:28:42;-1.00;75.20
53926;DHT22;39836;52.754;6.866;2023-03-01T01:31:08;-0.90;74.90
53926;DHT22;39836;52.754;6.866;2023-03-01T01:33:34;-1.10;74.50
53926;DHT22;39836;52.754;6.866;2023-03-01T01:36:00;-1.20;74.50
53926;DHT22;39836;52.754;6.866;2023-03-01T01:38:26;-1.30;75.00
53926;DHT22;39836;52.754;6.866;2023-03-01T01:40:52;-1.30;75.50
53926;DHT22;39836;52.754;6.866;2023-03-01T01:43:24;-1.40;75.60
53926;DHT22;39836;52.754;6.866;2023-03-01T01:45:52;-1.50;76.00
53926;DHT22;39836;52.754;6.866;2023-03-01T01:48:24;-1.50;76.60
53926;DHT22;39836;52.754;6.866;2023-03-01T01:50:59;-1.60;76.60
53926;DHT22;39836;52.754;6.866;2023-03-01T01:53:25;-1.60;76.60
53926;DHT22;39836;52.754;6.866;2023-03-01T01:55:56;-1.80;75.80
53926;DHT22;39836;52.754;6.866;2023-03-01T01:58:25;-1.80;75.60
53926;DHT22;39836;52.754;6.866;2023-03-01T02:00:53;-1.80;75.60
53926;DHT22;39836;52.754;6.866;2023-03-01T02:03:24;-1.80;75.70
53926;DHT22;39836;52.754;6.866;2023-03-01T02:06:26;-1.60;75.20
53926;DHT22;39836;52.754;6.866;2023-03-01T02:08:57;-1.70;75.10
53926;DHT22;39836;52.754;6.866;2023-03-01T02:11:24;-1.70;75.10
53926;DHT22;39836;52.754;6.866;2023-03-01T02:13:51;-1.70;75.10
53926;DHT22;39836;52.754;6.866;2023-03-01T02:16:18;-1.70;75.10
53926;DHT22;39836;52.754;6.866;2023-03-01T02:18:44;-1.70;75.30
53926;DHT22;39836;52.754;6.866;2023-03-01T02:21:32;-1.70;75.20
53926;DHT22;39836;52.754;6.866;2023-03-01T02:26:55;-1.70;75.40
53926;DHT22;39836;52.754;6.866;2023-03-01T02:29:23;-1.70;75.40
53926;DHT22;39836;52.754;6.866;2023-03-01T02:31:51;-1.70;75.20
53926;DHT22;39836;52.754;6.866;2023-03-01T02:34:22;-1.70;75.20
53926;DHT22;39836;52.754;6.866;2023-03-01T02:36:53;-1.70;75.30
53926;DHT22;39836;52.754;6.866;2023-03-01T02:39:30;-1.80;75.30
53926;DHT22;39836;52.754;6.866;2023-03-01T02:41:56;-1.80;75.70
53926;DHT22;39836;52.754;6.866;2023-03-01T02:44:23;-1.70;75.50
53926;DHT22;39836;52.754;6.866;2023-03-01T02:46:52;-1.80;75.60
53926;DHT22;39836;52.754;6.866;2023-03-01T02:49:38;-1.80;75.60
53926;DHT22;39836;52.754;6.866;2023-03-01T02:52:43;-1.80;75.50
53926;DHT22;39836;52.754;6.866;2023-03-01T02:55:12;-1.90;75.50
53926;DHT22;39836;52.754;6.866;2023-03-01T02:57:42;-1.90;75.70
53926;DHT22;39836;52.754;6.866;2023-03-01T03:00:12;-1.90;75.50
53926;DHT22;39836;52.754;6.866;2023-03-01T03:02:45;-2.00;75.20
53926;DHT22;39836;52.754;6.866;2023-03-01T03:05:17;-2.00;75.30
53926;DHT22;39836;52.754;6.866;2023-03-01T03:07:45;-2.00;75.10
53926;DHT22;39836;52.754;6.866;2023-03-01T03:10:20;-2.10;75.20
53926;DHT22;39836;52.754;6.866;2023-03-01T03:13:01;-2.10;75.00
53926;DHT22;39836;52.754;6.866;2023-03-01T03:15:28;-2.10;75.00
53926;DHT22;39836;52.754;6.866;2023-03-01T03:17:55;-2.10;75.00
53926;DHT22;39836;52.754;6.866;2023-03-01T03:20:24;-2.10;75.10
53926;DHT22;39836;52.754;6.866;2023-03-01T03:22:51;-2.10;75.10
53926;DHT22;39836;52.754;6.866;2023-03-01T03:25:18;-2.20;75.10
53926;DHT22;39836;52.754;6.866;2023-03-01T03:27:46;-2.00;75.10
53926;DHT22;39836;52.754;6.866;2023-03-01T03:30:16;-2.20;75.00
53926;DHT22;39836;52.754;6.866;2023-03-01T03:32:44;-2.20;75.00
53926;DHT22;39836;52.754;6.866;2023-03-01T03:37:44;-2.30;75.10
53926;DHT22;39836;52.754;6.866;2023-03-01T03:42:55;-2.30;74.90
53926;DHT22;39836;52.754;6.866;2023-03-01T03:45:21;-2.30;75.00
53926;DHT22;39836;52.754;6.866;2023-03-01T03:47:47;-2.30;75.00
53926;DHT22;39836;52.754;6.866;2023-03-01T03:50:15;-2.30;75.00
53926;DHT22;39836;52.754;6.866;2023-03-01T03:52:42;-2.30;75.00
53926;DHT22;39836;52.754;6.866;2023-03-01T03:55:09;-2.30;74.90
53926;DHT22;39836;52.754;6.866;2023-03-01T03:57:36;-2.30;75.00
53926;DHT22;39836;52.754;6.866;2023-03-01T04:00:02;-2.30;75.30
53926;DHT22;39836;52.754;6.866;2023-03-01T04:02:30;-2.30;75.40
53926;DHT22;39836;52.754;6.866;2023-03-01T04:04:56;-2.30;75.50
53926;DHT22;39836;52.754;6.866;2023-03-01T04:07:21;-2.40;75.50
53926;DHT22;39836;52.754;6.866;2023-03-01T04:09:47;-2.40;75.50
53926;DHT22;39836;52.754;6.866;2023-03-01T04:12:13;-2.40;75.50
53926;DHT22;39836;52.754;6.866;2023-03-01T04:14:38;-2.40;75.40
53926;DHT22;39836;52.754;6.866;2023-03-01T04:17:04;-2.40;75.40
53926;DHT22;39836;52.754;6.866;2023-03-01T04:19:33;-2.40;75.50
53926;DHT22;39836;52.754;6.866;2023-03-01T04:22:04;-2.40;75.50
53926;DHT22;39836;52.754;6.866;2023-03-01T04:24:37;-2.50;75.30
53926;DHT22;39836;52.754;6.866;2023-03-01T04:27:03;-2.50;75.10
53926;DHT22;39836;52.754;6.866;2023-03-01T04:29:29;-2.50;75.20
53926;DHT22;39836;52.754;6.866;2023-03-01T04:31:55;-2.50;75.10
53926;DHT22;39836;52.754;6.866;2023-03-01T04:34:20;-2.50;75.10
53926;DHT22;39836;52.754;6.866;2023-03-01T04:36:46;-2.60;75.10
53926;DHT22;39836;52.754;6.866;2023-03-01T04:39:12;-2.60;75.30
53926;DHT22;39836;52.754;6.866;2023-03-01T04:41:39;-2.60;75.40
53926;DHT22;39836;52.754;6.866;2023-03-01T04:44:08;-2.60;75.50
53926;DHT22;39836;52.754;6.866;2023-03-01T04:46:35;-2.70;75.50
53926;DHT22;39836;52.754;6.866;2023-03-01T04:49:01;-2.70;75.40
53926;DHT22;39836;52.754;6.866;2023-03-01T04:51:27;-2.80;75.50
53926;DHT22;39836;52.754;6.866;2023-03-01T04:53:53;-2.80;75.50
53926;DHT22;39836;52.754;6.866;2023-03-01T04:56:19;-2.80;75.50
53926;DHT22;39836;52.754;6.866;2023-03-01T04:58:45;-2.80;75.40
53926;DHT22;39836;52.754;6.866;2023-03-01T05:01:16;-2.80;75.20
53926;DHT22;39836;52.754;6.866;2023-03-01T05:03:48;-2.80;75.00
53926;DHT22;39836;52.754;6.866;2023-03-01T05:06:15;-2.80;75.00
53926;DHT22;39836;52.754;6.866;2023-03-01T05:08:42;-2.80;74.90
53926;DHT22;39836;52.754;6.866;2023-03-01T05:11:08;-2.80;75.00
53926;DHT22;39836;52.754;6.866;2023-03-01T05:13:35;-2.80;75.10
53926;DHT22;39836;52.754;6.866;2023-03-01T05:16:02;-2.80;75.00
53926;DHT22;39836;52.754;6.866;2023-03-01T05:18:30;-2.90;75.00
53926;DHT22;39836;52.754;6.866;2023-03-01T05:21:19;-2.80;74.90
53926;DHT22;39836;52.754;6.866;2023-03-01T05:23:45;-2.90;74.80
53926;DHT22;39836;52.754;6.866;2023-03-01T05:26:12;-2.90;74.90
53926;DHT22;39836;52.754;6.866;2023-03-01T05:28:38;-2.90;74.90
53926;DHT22;39836;52.754;6.866;2023-03-01T05:31:04;-2.70;75.00
53926;DHT22;39836;52.754;6.866;2023-03-01T05:33:39;-2.90;75.00
53926;DHT22;39836;52.754;6.866;2023-03-01T05:36:07;-3.00;75.10
53926;DHT22;39836;52.754;6.866;2023-03-01T05:38:33;-3.00;75.10
53926;DHT22;39836;52.754;6.866;2023-03-01T05:40:59;-3.00;75.00
53926;DHT22;39836;52.754;6.866;2023-03-01T05:43:25;-3.00;74.90
53926;DHT22;39836;52.754;6.866;2023-03-01T05:45:51;-3.00;75.00
53926;DHT22;39836;52.754;6.866;2023-03-01T05:48:17;-3.10;74.90
53926;DHT22;39836;52.754;6.866;2023-03-01T05:50:45;-3.10;74.80
53926;DHT22;39836;52.754;6.866;2023-03-01T05:53:20;-3.00;74.90
53926;DHT22;39836;52.754;6.866;2023-03-01T05:55:48;-3.10;74.80
53926;DHT22;39836;52.754;6.866;2023-03-01T05:58:17;-3.00;74.90
53926;DHT22;39836;52.754;6.866;2023-03-01T06:00:45;-3.10;74.90
53926;DHT22;39836;52.754;6.866;2023-03-01T06:03:13;-3.10;75.10
53926;DHT22;39836;52.754;6.866;2023-03-01T06:05:40;-3.10;75.20
53926;DHT22;39836;52.754;6.866;2023-03-01T06:08:06;-3.10;75.30
53926;DHT22;39836;52.754;6.866;2023-03-01T06:10:33;-3.10;75.40
53926;DHT22;39836;52.754;6.866;2023-03-01T06:12:58;-3.10;75.50
53926;DHT22;39836;52.754;6.866;2023-03-01T06:15:25;-3.10;75.30
53926;DHT22;39836;52.754;6.866;2023-03-01T06:17:51;-3.10;75.30
53926;DHT22;39836;52.754;6.866;2023-03-01T06:20:22;-3.10;75.40
53926;DHT22;39836;52.754;6.866;2023-03-01T06:22:48;-3.10;75.20
53926;DHT22;39836;52.754;6.866;2023-03-01T06:25:17;-3.10;75.10
53926;DHT22;39836;52.754;6.866;2023-03-01T06:27:43;-3.10;75.10
53926;DHT22;39836;52.754;6.866;2023-03-01T06:30:10;-3.10;75.00
53926;DHT22;39836;52.754;6.866;2023-03-01T06:32:37;-3.10;74.90
53926;DHT22;39836;52.754;6.866;2023-03-01T06:35:08;-3.10;74.90
53926;DHT22;39836;52.754;6.866;2023-03-01T06:37:34;-3.10;74.90
53926;DHT22;39836;52.754;6.866;2023-03-01T06:40:01;-2.90;75.00
53926;DHT22;39836;52.754;6.866;2023-03-01T06:42:32;-3.10;75.00
53926;DHT22;39836;52.754;6.866;2023-03-01T06:44:58;-3.10;75.10
53926;DHT22;39836;52.754;6.866;2023-03-01T06:47:23;-3.10;75.10
53926;DHT22;39836;52.754;6.866;2023-03-01T06:49:49;-3.10;75.10
53926;DHT22;39836;52.754;6.866;2023-03-01T06:52:15;-3.00;75.20
53926;DHT22;39836;52.754;6.866;2023-03-01T06:54:40;-3.00;75.20
53926;DHT22;39836;52.754;6.866;2023-03-01T06:57:06;-3.00;75.20
53926;DHT22;39836;52.754;6.866;2023-03-01T06:59:32;-2.90;75.20
53926;DHT22;39836;52.754;6.866;2023-03-01T07:01:57;-2.70;75.30
53926;DHT22;39836;52.754;6.866;2023-03-01T07:04:23;-2.70;75.30
53926;DHT22;39836;52.754;6.866;2023-03-01T07:06:48;-2.70;75.40
53926;DHT22;39836;52.754;6.866;2023-03-01T07:09:23;-2.70;75.40
53926;DHT22;39836;52.754;6.866;2023-03-01T07:11:49;-2.60;75.40
53926;DHT22;39836;52.754;6.866;2023-03-01T07:14:16;-2.60;75.50
53926;DHT22;39836;52.754;6.866;2023-03-01T07:16:41;-2.50;75.60
53926;DHT22;39836;52.754;6.866;2023-03-01T07:19:07;-2.40;75.80
53926;DHT22;39836;52.754;6.866;2023-03-01T07:21:33;-2.40;75.80
53926;DHT22;39836;52.754;6.866;2023-03-01T07:23:58;-2.30;76.10
53926;DHT22;39836;52.754;6.866;2023-03-01T07:26:24;-2.30;76.00
53926;DHT22;39836;52.754;6.866;2023-03-01T07:28:50;-2.20;76.00
53926;DHT22;39836;52.754;6.866;2023-03-01T07:31:15;-2.10;75.90
53926;DHT22;39836;52.754;6.866;2023-03-01T07:33:41;-2.10;75.80
53926;DHT22;39836;52.754;6.866;2023-03-01T07:36:07;-1.80;75.90
53926;DHT22;39836;52.754;6.866;2023-03-01T07:38:34;-1.90;76.50
53926;DHT22;39836;52.754;6.866;2023-03-01T07:41:01;-1.80;76.50
53926;DHT22;39836;52.754;6.866;2023-03-01T07:43:28;-1.80;76.60
53926;DHT22;39836;52.754;6.866;2023-03-01T07:45:54;-1.70;76.60
53926;DHT22;39836;52.754;6.866;2023-03-01T07:48:19;-1.60;76.40
53926;DHT22;39836;52.754;6.866;2023-03-01T07:50:45;-1.60;76.30
53926;DHT22;39836;52.754;6.866;2023-03-01T07:53:11;-1.40;76.20
53926;DHT22;39836;52.754;6.866;2023-03-01T07:55:37;-1.40;76.10
53926;DHT22;39836;52.754;6.866;2023-03-01T07:58:03;-1.30;76.00
53926;DHT22;39836;52.754;6.866;2023-03-01T08:00:29;-1.20;75.90
53926;DHT22;39836;52.754;6.866;2023-03-01T08:02:58;-1.10;75.90
53926;DHT22;39836;52.754;6.866;2023-03-01T08:05:23;-0.90;76.00
53926;DHT22;39836;52.754;6.866;2023-03-01T08:07:49;-0.80;76.00
53926;DHT22;39836;52.754;6.866;2023-03-01T08:10:15;-0.70;76.00
53926;DHT22;39836;52.754;6.866;2023-03-01T08:12:41;-0.60;76.10
53926;DHT22;39836;52.754;6.866;2023-03-01T08:15:07;-0.40;76.10
53926;DHT22;39836;52.754;6.866;2023-03-01T08:17:33;-0.30;76.00
53926;DHT22;39836;52.754;6.866;2023-03-01T08:19:59;-0.10;76.10
53926;DHT22;39836;52.754;6.866;2023-03-01T08:22:24;0.00;76.00
53926;DHT22;39836;52.754;6.866;2023-03-01T08:24:51;0.10;76.00
53926;DHT22;39836;52.754;6.866;2023-03-01T08:27:17;0.30;76.00
53926;DHT22;39836;52.754;6.866;2023-03-01T08:29:43;0.40;76.00
53926;DHT22;39836;52.754;6.866;2023-03-01T08:32:08;0.60;76.00
53926;DHT22;39836;52.754;6.866;2023-03-01T08:34:34;0.70;76.00
53926;DHT22;39836;52.754;6.866;2023-03-01T08:37:01;0.80;75.90
53926;DHT22;39836;52.754;6.866;2023-03-01T08:39:27;1.20;76.00
53926;DHT22;39836;52.754;6.866;2023-03-01T08:41:53;1.20;75.80
53926;DHT22;39836;52.754;6.866;2023-03-01T08:44:19;1.40;75.80
53926;DHT22;39836;52.754;6.866;2023-03-01T08:46:46;1.50;75.60
53926;DHT22;39836;52.754;6.866;2023-03-01T08:49:18;1.70;75.60
53926;DHT22;39836;52.754;6.866;2023-03-01T08:51:45;1.90;75.40
53926;DHT22;39836;52.754;6.866;2023-03-01T08:54:13;2.00;75.20
53926;DHT22;39836;52.754;6.866;2023-03-01T08:56:40;2.10;75.00
53926;DHT22;39836;52.754;6.866;2023-03-01T08:59:06;2.20;74.80
53926;DHT22;39836;52.754;6.866;2023-03-01T09:01:32;2.40;74.80
53926;DHT22;39836;52.754;6.866;2023-03-01T09:03:57;2.60;74.50
53926;DHT22;39836;52.754;6.866;2023-03-01T09:06:23;2.80;74.30
53926;DHT22;39836;52.754;6.866;2023-03-01T09:08:49;3.00;74.10
53926;DHT22;39836;52.754;6.866;2023-03-01T09:11:18;3.10;73.70
53926;DHT22;39836;52.754;6.866;2023-03-01T09:13:45;3.20;73.40
53926;DHT22;39836;52.754;6.866;2023-03-01T09:16:13;3.30;73.10
53926;DHT22;39836;52.754;6.866;2023-03-01T09:18:39;3.50;72.90
53926;DHT22;39836;52.754;6.866;2023-03-01T09:21:08;3.70;72.30
53926;DHT22;39836;52.754;6.866;2023-03-01T09:23:36;3.80;72.20
53926;DHT22;39836;52.754;6.866;2023-03-01T09:26:02;3.90;71.90
53926;DHT22;39836;52.754;6.866;2023-03-01T09:28:28;4.00;71.70
53926;DHT22;39836;52.754;6.866;2023-03-01T09:30:58;4.10;71.40
53926;DHT22;39836;52.754;6.866;2023-03-01T09:33:25;4.20;71.30
53926;DHT22;39836;52.754;6.866;2023-03-01T09:36:05;4.30;71.10
53926;DHT22;39836;52.754;6.866;2023-03-01T09:38:32;4.40;71.00
53926;DHT22;39836;52.754;6.866;2023-03-01T09:40:59;4.60;69.70
53926;DHT22;39836;52.754;6.866;2023-03-01T09:43:46;4.80;70.40
53926;DHT22;39836;52.754;6.866;2023-03-01T09:46:14;4.80;70.30
53926;DHT22;39836;52.754;6.866;2023-03-01T09:48:48;4.70;70.10
53926;DHT22;39836;52.754;6.866;2023-03-01T09:51:25;4.70;70.20
53926;DHT22;39836;52.754;6.866;2023-03-01T09:53:52;4.90;70.20
53926;DHT22;39836;52.754;6.866;2023-03-01T09:56:41;5.00;70.30
53926;DHT22;39836;52.754;6.866;2023-03-01T09:59:18;5.10;70.10
53926;DHT22;39836;52.754;6.866;2023-03-01T10:02:11;5.10;69.50
53926;DHT22;39836;52.754;6.866;2023-03-01T10:04:48;5.30;69.90
53926;DHT22;39836;52.754;6.866;2023-03-01T10:09:47;5.30;69.50
53926;DHT22;39836;52.754;6.866;2023-03-01T10:12:37;5.30;69.40
53926;DHT22;39836;52.754;6.866;2023-03-01T10:15:15;5.30;69.40
53926;DHT22;39836;52.754;6.866;2023-03-01T10:18:00;5.30;69.40
53926;DHT22;39836;52.754;6.866;2023-03-01T10:21:31;5.40;69.40
53926;DHT22;39836;52.754;6.866;2023-03-01T10:23:34;5.40;69.20
53926;DHT22;39836;52.754;6.866;2023-03-01T10:31:23;5.40;69.00
53926;DHT22;39836;52.754;6.866;2023-03-01T10:33:54;5.70;69.10
53926;DHT22;39836;52.754;6.866;2023-03-01T10:36:24;5.70;69.00
53926;DHT22;39836;52.754;6.866;2023-03-01T10:38:55;5.80;69.10
53926;DHT22;39836;52.754;6.866;2023-03-01T10:41:23;5.90;69.00
53926;DHT22;39836;52.754;6.866;2023-03-01T10:43:57;6.00;69.00
53926;DHT22;39836;52.754;6.866;2023-03-01T10:51:39;6.10;68.10
53926;DHT22;39836;52.754;6.866;2023-03-01T10:54:15;6.10;68.50
53926;DHT22;39836;52.754;6.866;2023-03-01T10:56:47;6.20;68.10
53926;DHT22;39836;52.754;6.866;2023-03-01T10:59:29;6.30;68.40
53926;DHT22;39836;52.754;6.866;2023-03-01T11:02:16;6.30;68.40
53926;DHT22;39836;52.754;6.866;2023-03-01T11:05:02;6.50;68.60
53926;DHT22;39836;52.754;6.866;2023-03-01T11:07:47;6.50;68.40
53926;DHT22;39836;52.754;6.866;2023-03-01T11:10:17;6.50;68.20
53926;DHT22;39836;52.754;6.866;2023-03-01T11:12:43;6.50;68.10
53926;DHT22;39836;52.754;6.866;2023-03-01T11:15:21;6.60;68.30
53926;DHT22;39836;52.754;6.866;2023-03-01T11:17:47;6.50;67.80
53926;DHT22;39836;52.754;6.866;2023-03-01T11:20:29;6.50;67.90
53926;DHT22;39836;52.754;6.866;2023-03-01T11:23:00;6.40;67.80
53926;DHT22;39836;52.754;6.866;2023-03-01T11:25:30;6.30;67.80
53926;DHT22;39836;52.754;6.866;2023-03-01T11:27:59;6.30;67.60
53926;DHT22;39836;52.754;6.866;2023-03-01T11:30:30;6.30;67.80
53926;DHT22;39836;52.754;6.866;2023-03-01T11:33:29;6.40;67.90
53926;DHT22;39836;52.754;6.866;2023-03-01T11:38:53;6.50;67.90
53926;DHT22;39836;52.754;6.866;2023-03-01T11:41:27;6.50;67.80
53926;DHT22;39836;52.754;6.866;2023-03-01T11:55:16;6.80;68.00
53926;DHT22;39836;52.754;6.866;2023-03-01T12:01:02;7.00;67.90
53926;DHT22;39836;52.754;6.866;2023-03-01T12:06:37;7.00;67.80
53926;DHT22;39836;52.754;6.866;2023-03-01T12:12:25;7.10;68.00
53926;DHT22;39836;52.754;6.866;2023-03-01T12:14:55;7.20;68.00
53926;DHT22;39836;52.754;6.866;2023-03-01T12:17:55;7.30;67.90
53926;DHT22;39836;52.754;6.866;2023-03-01T12:20:45;7.40;67.90
53926;DHT22;39836;52.754;6.866;2023-03-01T12:23:22;7.50;67.80
53926;DHT22;39836;52.754;6.866;2023-03-01T12:32:00;7.90;68.10
53926;DHT22;39836;52.754;6.866;2023-03-01T12:43:08;8.70;67.00
53926;DHT22;39836;52.754;6.866;2023-03-01T12:45:59;8.90;66.60
53926;DHT22;39836;52.754;6.866;2023-03-01T12:51:12;9.20;66.30
53926;DHT22;39836;52.754;6.866;2023-03-01T12:53:51;9.40;66.50
53926;DHT22;39836;52.754;6.866;2023-03-01T12:56:22;9.60;66.10
53926;DHT22;39836;52.754;6.866;2023-03-01T12:59:04;9.80;66.30
53926;DHT22;39836;52.754;6.866;2023-03-01T13:01:53;10.10;66.10
53926;DHT22;39836;52.754;6.866;2023-03-01T13:17:51;11.10;63.80
53926;DHT22;39836;52.754;6.866;2023-03-01T13:20:52;11.30;64.40
53926;DHT22;39836;52.754;6.866;2023-03-01T13:33:55;11.80;62.60
53926;DHT22;39836;52.754;6.866;2023-03-01T13:38:59;12.40;62.80
53926;DHT22;39836;52.754;6.866;2023-03-01T13:44:33;12.60;62.20
53926;DHT22;39836;52.754;6.866;2023-03-01T13:47:14;12.80;62.50
53926;DHT22;39836;52.754;6.866;2023-03-01T13:49:50;12.80;61.90
53926;DHT22;39836;52.754;6.866;2023-03-01T13:55:18;12.60;61.40
53926;DHT22;39836;52.754;6.866;2023-03-01T13:58:14;12.40;61.70
53926;DHT22;39836;52.754;6.866;2023-03-01T14:00:37;12.50;61.80
53926;DHT22;39836;52.754;6.866;2023-03-01T14:03:04;12.90;62.10
53926;DHT22;39836;52.754;6.866;2023-03-01T14:05:32;13.20;61.50
53926;DHT22;39836;52.754;6.866;2023-03-01T14:07:58;13.50;61.50
53926;DHT22;39836;52.754;6.866;2023-03-01T14:10:31;13.80;61.50
53926;DHT22;39836;52.754;6.866;2023-03-01T14:21:14;14.30;60.90
53926;DHT22;39836;52.754;6.866;2023-03-01T14:23:41;14.20;60.60
53926;DHT22;39836;52.754;6.866;2023-03-01T14:26:08;14.20;60.60
53926;DHT22;39836;52.754;6.866;2023-03-01T14:28:36;13.70;60.40
53926;DHT22;39836;52.754;6.866;2023-03-01T14:31:37;13.70;60.70
53926;DHT22;39836;52.754;6.866;2023-03-01T14:34:04;14.10;61.00
53926;DHT22;39836;52.754;6.866;2023-03-01T14:36:32;14.60;61.00
53926;DHT22;39836;52.754;6.866;2023-03-01T14:38:58;14.70;60.50
53926;DHT22;39836;52.754;6.866;2023-03-01T14:41:32;14.80;60.60
53926;DHT22;39836;52.754;6.866;2023-03-01T14:44:06;14.60;60.60
53926;DHT22;39836;52.754;6.866;2023-03-01T14:46:35;14.70;60.40
53926;DHT22;39836;52.754;6.866;2023-03-01T14:49:14;14.50;60.30
53926;DHT22;39836;52.754;6.866;2023-03-01T14:51:46;14.30;60.20
53926;DHT22;39836;52.754;6.866;2023-03-01T14:54:29;14.50;60.30
53926;DHT22;39836;52.754;6.866;2023-03-01T14:57:01;14.50;60.10
53926;DHT22;39836;52.754;6.866;2023-03-01T14:59:27;14.00;60.20
53926;DHT22;39836;52.754;6.866;2023-03-01T15:01:56;13.40;60.20
53926;DHT22;39836;52.754;6.866;2023-03-01T15:04:23;12.50;60.30
53926;DHT22;39836;52.754;6.866;2023-03-01T15:06:54;11.80;60.40
53926;DHT22;39836;52.754;6.866;2023-03-01T15:09:21;11.10;60.70
53926;DHT22;39836;52.754;6.866;2023-03-01T15:11:47;10.70;60.90
53926;DHT22;39836;52.754;6.866;2023-03-01T15:14:38;10.20;61.10
53926;DHT22;39836;52.754;6.866;2023-03-01T15:19:46;9.40;61.40
53926;DHT22;39836;52.754;6.866;2023-03-01T15:22:15;9.10;61.50
53926;DHT22;39836;52.754;6.866;2023-03-01T15:24:41;8.90;61.80
53926;DHT22;39836;52.754;6.866;2023-03-01T15:27:17;8.70;62.10
53926;DHT22;39836;52.754;6.866;2023-03-01T15:29:50;8.60;62.10
53926;DHT22;39836;52.754;6.866;2023-03-01T15:34:51;8.50;62.40
53926;DHT22;39836;52.754;6.866;2023-03-01T15:37:45;8.40;62.40
53926;DHT22;39836;52.754;6.866;2023-03-01T15:40:32;8.30;62.70
53926;DHT22;39836;52.754;6.866;2023-03-01T15:43:00;8.20;63.20
53926;DHT22;39836;52.754;6.866;2023-03-01T15:45:27;8.20;63.20
53926;DHT22;39836;52.754;6.866;2023-03-01T15:47:56;8.10;63.50
53926;DHT22;39836;52.754;6.866;2023-03-01T15:50:33;8.10;63.70
53926;DHT22;39836;52.754;6.866;2023-03-01T15:53:03;8.00;63.90
53926;DHT22;39836;52.754;6.866;2023-03-01T15:55:31;8.00;64.10
53926;DHT22;39836;52.754;6.866;2023-03-01T15:58:03;8.00;64.30
53926;DHT22;39836;52.754;6.866;2023-03-01T16:00:29;7.90;64.50
53926;DHT22;39836;52.754;6.866;2023-03-01T16:02:55;7.90;64.50
53926;DHT22;39836;52.754;6.866;2023-03-01T16:05:30;7.90;64.70
53926;DHT22;39836;52.754;6.866;2023-03-01T16:07:56;7.80;64.90
53926;DHT22;39836;52.754;6.866;2023-03-01T16:10:23;7.70;65.20
53926;DHT22;39836;52.754;6.866;2023-03-01T16:12:50;7.70;65.30
53926;DHT22;39836;52.754;6.866;2023-03-01T16:17:43;7.70;65.80
53926;DHT22;39836;52.754;6.866;2023-03-01T16:20:09;7.50;65.80
53926;DHT22;39836;52.754;6.866;2023-03-01T16:22:35;7.50;65.90
53926;DHT22;39836;52.754;6.866;2023-03-01T16:25:01;7.50;66.10
53926;DHT22;39836;52.754;6.866;2023-03-01T16:27:28;7.40;66.10
53926;DHT22;39836;52.754;6.866;2023-03-01T16:29:53;7.40;66.10
53926;DHT22;39836;52.754;6.866;2023-03-01T16:32:19;7.40;66.10
53926;DHT22;39836;52.754;6.866;2023-03-01T16:34:45;7.40;66.20
53926;DHT22;39836;52.754;6.866;2023-03-01T16:37:15;7.30;66.40
53926;DHT22;39836;52.754;6.866;2023-03-01T16:39:40;7.30;66.40
53926;DHT22;39836;52.754;6.866;2023-03-01T16:42:06;7.20;66.60
53926;DHT22;39836;52.754;6.866;2023-03-01T16:44:32;7.10;66.60
53926;DHT22;39836;52.754;6.866;2023-03-01T16:46:57;7.10;66.70
53926;DHT22;39836;52.754;6.866;2023-03-01T16:49:23;7.00;66.80
53926;DHT22;39836;52.754;6.866;2023-03-01T16:51:49;7.00;66.90
53926;DHT22;39836;52.754;6.866;2023-03-01T16:54:14;7.00;67.00
53926;DHT22;39836;52.754;6.866;2023-03-01T16:56:40;6.90;67.10
53926;DHT22;39836;52.754;6.866;2023-03-01T16:59:06;6.80;67.20
53926;DHT22;39836;52.754;6.866;2023-03-01T17:01:32;6.80;67.40
53926;DHT22;39836;52.754;6.866;2023-03-01T17:04:08;6.70;67.40
53926;DHT22;39836;52.754;6.866;2023-03-01T17:06:35;6.70;67.60
53926;DHT22;39836;52.754;6.866;2023-03-01T17:09:01;6.70;67.70
53926;DHT22;39836;52.754;6.866;2023-03-01T17:11:27;6.60;67.80
53926;DHT22;39836;52.754;6.866;2023-03-01T17:13:53;6.50;67.90
53926;DHT22;39836;52.754;6.866;2023-03-01T17:16:20;6.50;68.00
53926;DHT22;39836;52.754;6.866;2023-03-01T17:18:46;6.40;68.10
53926;DHT22;39836;52.754;6.866;2023-03-01T17:21:12;6.30;68.10
53926;DHT22;39836;52.754;6.866;2023-03-01T17:23:40;6.30;68.30
53926;DHT22;39836;52.754;6.866;2023-03-01T17:26:07;6.20;68.30
53926;DHT22;39836;52.754;6.866;2023-03-01T17:28:34;6.20;68.50
53926;DHT22;39836;52.754;6.866;2023-03-01T17:31:01;6.10;68.60
53926;DHT22;39836;52.754;6.866;2023-03-01T17:33:27;6.00;68.60
53926;DHT22;39836;52.754;6.866;2023-03-01T17:35:55;6.00;68.70
53926;DHT22;39836;52.754;6.866;2023-03-01T17:38:21;5.90;68.80
53926;DHT22;39836;52.754;6.866;2023-03-01T17:40:47;5.90;68.90
53926;DHT22;39836;52.754;6.866;2023-03-01T17:43:15;5.80;69.10